Clarksville, Florida
Current Conditions -  °F | °C
As of 8:53 PM on Sunday 21 Dec 2014 (Local Time) from KMAI Reporting Station
Haze Haze  
Wind Chill: 53°   Ceiling: 200
Heat Index: 53°   Visibility: 3mi
Dew Point: 53°   Wind: 8mph
Humidity: 100%   Direction: 60°ENE
Pressure: 30.03"   Gusts: NA
Location:  30.47°N, 85.05°W
Report Text: KMAI 220253Z AUTO 06007KT 3SM BR OVC002 12/12 A3003 RMK AO2 RAB09E45 SLP169 P0000 60000 T01170117 58007 $
Loading
Personal Weather Stations






























Interactive Weather Map New forecast layout! Learn more

10-Day Weather Forecast

Advertisements
Track Severe Weather on mobile